SVSA/SVZ METAR and TAF weather

Enter ICAO airport designator
Station Type Date Time Source
SVSA METAR 2022/11/30 11:00 UTC NOAA

SVSA 301100Z /////KT 5000RA FEW005 BKN015 XX/XX QXXXX


Station Type Date Time Source
SVSA Decoded METAR 2022/11/30 11:00 UTC NOAA

San Antonio Del Tachira, Venezuela (SVSA) 07-51N 072-27W 378M
Nov 30, 2022 - 06:00 AM EST / 2022.11.30 1100 UTC
Sky conditions: mostly cloudy
ob: SVSA 301100Z /////KT 5000RA FEW005 BKN015 XX/XX QXXXX
cycle: 11

Station Type Date Time Source
SVSA TAF 2022/11/30 12:03 UTC NOAA

TAF TAF SVSA 301000Z 3012/0112 06005KT 9999 SCT016 TX30/3019Z TN22/0107Z
TEMPO 3018/3022 07011KT 9000 -DZ SCT070 BKN010

Example: see airport list